sensor_id;sensor_type;location;lat;lon;timestamp;temperature;humidity
7684;DHT22;3884;48.616;12.872;2023-05-16T00:01:34;10.70;99.90
7684;DHT22;3884;48.616;12.872;2023-05-16T00:04:02;10.80;99.90
7684;DHT22;3884;48.616;12.872;2023-05-16T00:06:29;10.80;99.90
7684;DHT22;3884;48.616;12.872;2023-05-16T00:08:56;10.80;99.90
7684;DHT22;3884;48.616;12.872;2023-05-16T00:11:23;11.00;99.90
7684;DHT22;3884;48.616;12.872;2023-05-16T00:13:51;10.90;20.40
7684;DHT22;3884;48.616;12.872;2023-05-16T00:16:18;10.80;36.50
7684;DHT22;3884;48.616;12.872;2023-05-16T00:18:46;10.70;99.90
7684;DHT22;3884;48.616;12.872;2023-05-16T00:21:13;10.70;99.90
7684;DHT22;3884;48.616;12.872;2023-05-16T00:23:40;10.80;99.90
7684;DHT22;3884;48.616;12.872;2023-05-16T00:26:06;10.70;99.90
7684;DHT22;3884;48.616;12.872;2023-05-16T00:28:33;10.80;99.90
7684;DHT22;3884;48.616;12.872;2023-05-16T00:31:01;10.70;99.90
7684;DHT22;3884;48.616;12.872;2023-05-16T00:33:28;10.60;99.90
7684;DHT22;3884;48.616;12.872;2023-05-16T00:35:57;10.70;99.90
7684;DHT22;3884;48.616;12.872;2023-05-16T00:38:24;10.60;99.90
7684;DHT22;3884;48.616;12.872;2023-05-16T00:40:52;10.70;99.90
7684;DHT22;3884;48.616;12.872;2023-05-16T00:43:19;10.70;99.90
7684;DHT22;3884;48.616;12.872;2023-05-16T00:45:49;10.80;99.90
7684;DHT22;3884;48.616;12.872;2023-05-16T00:48:17;10.80;99.90
7684;DHT22;3884;48.616;12.872;2023-05-16T00:50:45;10.80;99.90
7684;DHT22;3884;48.616;12.872;2023-05-16T00:53:12;10.80;99.90
7684;DHT22;3884;48.616;12.872;2023-05-16T00:55:39;10.80;99.90
7684;DHT22;3884;48.616;12.872;2023-05-16T00:58:06;10.80;99.90
7684;DHT22;3884;48.616;12.872;2023-05-16T01:00:34;10.80;99.90
7684;DHT22;3884;48.616;12.872;2023-05-16T01:03:03;10.70;99.90
7684;DHT22;3884;48.616;12.872;2023-05-16T01:05:32;10.70;99.90
7684;DHT22;3884;48.616;12.872;2023-05-16T01:07:59;10.70;99.90
7684;DHT22;3884;48.616;12.872;2023-05-16T01:10:31;10.80;99.90
7684;DHT22;3884;48.616;12.872;2023-05-16T01:13:08;10.90;99.90
7684;DHT22;3884;48.616;12.872;2023-05-16T01:15:43;11.00;99.90
7684;DHT22;3884;48.616;12.872;2023-05-16T01:18:18;10.80;99.90
7684;DHT22;3884;48.616;12.872;2023-05-16T01:20:53;10.70;99.90
7684;DHT22;3884;48.616;12.872;2023-05-16T01:23:33;10.70;99.90
7684;DHT22;3884;48.616;12.872;2023-05-16T01:26:14;10.70;99.90
7684;DHT22;3884;48.616;12.872;2023-05-16T01:28:43;10.80;99.90
7684;DHT22;3884;48.616;12.872;2023-05-16T01:31:11;10.70;99.90
7684;DHT22;3884;48.616;12.872;2023-05-16T01:33:37;10.80;99.90
7684;DHT22;3884;48.616;12.872;2023-05-16T01:36:10;10.80;99.90
7684;DHT22;3884;48.616;12.872;2023-05-16T01:38:43;10.80;99.90
7684;DHT22;3884;48.616;12.872;2023-05-16T01:41:17;10.70;99.90
7684;DHT22;3884;48.616;12.872;2023-05-16T01:43:50;10.70;99.90
7684;DHT22;3884;48.616;12.872;2023-05-16T01:46:22;10.70;99.90
7684;DHT22;3884;48.616;12.872;2023-05-16T01:48:52;10.70;99.90
7684;DHT22;3884;48.616;12.872;2023-05-16T01:51:21;10.80;99.90
7684;DHT22;3884;48.616;12.872;2023-05-16T01:53:51;10.80;99.90
7684;DHT22;3884;48.616;12.872;2023-05-16T01:56:22;10.80;99.90
7684;DHT22;3884;48.616;12.872;2023-05-16T01:58:51;10.70;99.90
7684;DHT22;3884;48.616;12.872;2023-05-16T02:01:18;10.80;99.90
7684;DHT22;3884;48.616;12.872;2023-05-16T02:03:45;10.70;99.90
7684;DHT22;3884;48.616;12.872;2023-05-16T02:06:13;10.70;99.90
7684;DHT22;3884;48.616;12.872;2023-05-16T02:08:39;10.50;99.90
7684;DHT22;3884;48.616;12.872;2023-05-16T02:11:06;10.60;99.90
7684;DHT22;3884;48.616;12.872;2023-05-16T02:13:34;10.60;99.90
7684;DHT22;3884;48.616;12.872;2023-05-16T02:16:02;10.50;99.90
7684;DHT22;3884;48.616;12.872;2023-05-16T02:18:29;10.50;99.90
7684;DHT22;3884;48.616;12.872;2023-05-16T02:20:56;10.50;99.90
7684;DHT22;3884;48.616;12.872;2023-05-16T02:23:23;10.50;99.90
7684;DHT22;3884;48.616;12.872;2023-05-16T02:25:50;10.40;99.90
7684;DHT22;3884;48.616;12.872;2023-05-16T02:28:17;10.30;99.90
7684;DHT22;3884;48.616;12.872;2023-05-16T02:30:45;10.30;99.90
7684;DHT22;3884;48.616;12.872;2023-05-16T02:33:11;10.30;99.90
7684;DHT22;3884;48.616;12.872;2023-05-16T02:35:38;10.20;99.90
7684;DHT22;3884;48.616;12.872;2023-05-16T02:38:05;10.10;99.90
7684;DHT22;3884;48.616;12.872;2023-05-16T02:40:32;10.20;99.90
7684;DHT22;3884;48.616;12.872;2023-05-16T02:42:59;10.30;99.90
7684;DHT22;3884;48.616;12.872;2023-05-16T02:45:26;10.30;99.90
7684;DHT22;3884;48.616;12.872;2023-05-16T02:47:54;10.20;99.90
7684;DHT22;3884;48.616;12.872;2023-05-16T02:50:21;10.30;99.90
7684;DHT22;3884;48.616;12.872;2023-05-16T02:52:48;10.20;99.90
7684;DHT22;3884;48.616;12.872;2023-05-16T02:55:15;10.20;99.90
7684;DHT22;3884;48.616;12.872;2023-05-16T02:57:42;10.30;99.90
7684;DHT22;3884;48.616;12.872;2023-05-16T03:00:12;10.30;99.90
7684;DHT22;3884;48.616;12.872;2023-05-16T03:02:39;10.20;99.90
7684;DHT22;3884;48.616;12.872;2023-05-16T03:05:08;10.30;99.90
7684;DHT22;3884;48.616;12.872;2023-05-16T03:07:36;10.20;99.90
7684;DHT22;3884;48.616;12.872;2023-05-16T03:10:05;10.20;99.90
7684;DHT22;3884;48.616;12.872;2023-05-16T03:12:32;10.30;99.90
7684;DHT22;3884;48.616;12.872;2023-05-16T03:14:59;10.50;99.90
7684;DHT22;3884;48.616;12.872;2023-05-16T03:17:26;10.30;99.90
7684;DHT22;3884;48.616;12.872;2023-05-16T03:19:53;10.30;99.90
7684;DHT22;3884;48.616;12.872;2023-05-16T03:22:21;10.20;99.90
7684;DHT22;3884;48.616;12.872;2023-05-16T03:24:48;10.10;99.90
7684;DHT22;3884;48.616;12.872;2023-05-16T03:27:15;10.00;99.90
7684;DHT22;3884;48.616;12.872;2023-05-16T03:29:41;9.90;99.90
7684;DHT22;3884;48.616;12.872;2023-05-16T03:32:10;9.90;99.90
7684;DHT22;3884;48.616;12.872;2023-05-16T03:34:37;9.60;99.90
7684;DHT22;3884;48.616;12.872;2023-05-16T03:37:06;9.70;99.90
7684;DHT22;3884;48.616;12.872;2023-05-16T03:39:34;9.70;99.90
7684;DHT22;3884;48.616;12.872;2023-05-16T03:42:01;9.50;99.90
7684;DHT22;3884;48.616;12.872;2023-05-16T03:44:28;9.50;99.90
7684;DHT22;3884;48.616;12.872;2023-05-16T03:46:54;9.60;99.90
7684;DHT22;3884;48.616;12.872;2023-05-16T03:49:25;9.60;99.90
7684;DHT22;3884;48.616;12.872;2023-05-16T03:51:52;9.70;99.90
7684;DHT22;3884;48.616;12.872;2023-05-16T03:54:19;9.70;99.90
7684;DHT22;3884;48.616;12.872;2023-05-16T03:56:47;9.60;99.90
7684;DHT22;3884;48.616;12.872;2023-05-16T03:59:14;9.80;99.90
7684;DHT22;3884;48.616;12.872;2023-05-16T04:01:41;9.80;99.90
7684;DHT22;3884;48.616;12.872;2023-05-16T04:04:08;9.60;99.90
7684;DHT22;3884;48.616;12.872;2023-05-16T04:06:38;9.40;99.90
7684;DHT22;3884;48.616;12.872;2023-05-16T04:09:05;9.40;99.90
7684;DHT22;3884;48.616;12.872;2023-05-16T04:11:32;9.50;99.90
7684;DHT22;3884;48.616;12.872;2023-05-16T04:14:00;9.50;99.90
7684;DHT22;3884;48.616;12.872;2023-05-16T04:16:27;9.60;99.90
7684;DHT22;3884;48.616;12.872;2023-05-16T04:18:54;9.60;99.90
7684;DHT22;3884;48.616;12.872;2023-05-16T04:21:21;9.60;99.90
7684;DHT22;3884;48.616;12.872;2023-05-16T04:23:48;9.60;99.90
7684;DHT22;3884;48.616;12.872;2023-05-16T04:26:15;9.60;99.90
7684;DHT22;3884;48.616;12.872;2023-05-16T04:28:42;9.60;99.90
7684;DHT22;3884;48.616;12.872;2023-05-16T04:31:10;9.70;99.90
7684;DHT22;3884;48.616;12.872;2023-05-16T04:33:38;9.70;99.90
7684;DHT22;3884;48.616;12.872;2023-05-16T04:36:06;9.70;99.90
7684;DHT22;3884;48.616;12.872;2023-05-16T04:38:33;9.70;99.90
7684;DHT22;3884;48.616;12.872;2023-05-16T04:41:00;9.60;99.90
7684;DHT22;3884;48.616;12.872;2023-05-16T04:43:28;9.60;99.90
7684;DHT22;3884;48.616;12.872;2023-05-16T04:45:55;9.60;99.90
7684;DHT22;3884;48.616;12.872;2023-05-16T04:48:24;9.60;99.90
7684;DHT22;3884;48.616;12.872;2023-05-16T04:50:51;9.50;99.90
7684;DHT22;3884;48.616;12.872;2023-05-16T04:53:18;9.60;99.90
7684;DHT22;3884;48.616;12.872;2023-05-16T04:55:45;9.60;99.90
7684;DHT22;3884;48.616;12.872;2023-05-16T04:58:13;9.70;99.90
7684;DHT22;3884;48.616;12.872;2023-05-16T05:00:41;9.70;99.90
7684;DHT22;3884;48.616;12.872;2023-05-16T05:03:08;9.80;99.90
7684;DHT22;3884;48.616;12.872;2023-05-16T05:05:38;9.80;99.90
7684;DHT22;3884;48.616;12.872;2023-05-16T05:08:07;9.90;99.90
7684;DHT22;3884;48.616;12.872;2023-05-16T05:10:34;9.90;99.90
7684;DHT22;3884;48.616;12.872;2023-05-16T05:13:01;10.00;99.90
7684;DHT22;3884;48.616;12.872;2023-05-16T05:15:29;10.10;99.90
7684;DHT22;3884;48.616;12.872;2023-05-16T05:17:56;10.10;99.90
7684;DHT22;3884;48.616;12.872;2023-05-16T05:20:23;10.10;99.90
7684;DHT22;3884;48.616;12.872;2023-05-16T05:22:52;10.10;99.90
7684;DHT22;3884;48.616;12.872;2023-05-16T05:25:19;10.20;99.90
7684;DHT22;3884;48.616;12.872;2023-05-16T05:27:47;10.40;99.90
7684;DHT22;3884;48.616;12.872;2023-05-16T05:30:14;10.40;99.90
7684;DHT22;3884;48.616;12.872;2023-05-16T05:32:41;10.30;99.90
7684;DHT22;3884;48.616;12.872;2023-05-16T05:35:08;10.30;99.90
7684;DHT22;3884;48.616;12.872;2023-05-16T05:37:35;10.40;99.90
7684;DHT22;3884;48.616;12.872;2023-05-16T05:40:05;10.60;99.90
7684;DHT22;3884;48.616;12.872;2023-05-16T05:42:32;10.70;99.90
7684;DHT22;3884;48.616;12.872;2023-05-16T05:45:04;10.80;99.90
7684;DHT22;3884;48.616;12.872;2023-05-16T05:47:32;10.80;99.90
7684;DHT22;3884;48.616;12.872;2023-05-16T05:49:59;10.80;99.90
7684;DHT22;3884;48.616;12.872;2023-05-16T05:52:27;10.90;99.90
7684;DHT22;3884;48.616;12.872;2023-05-16T05:54:54;11.00;99.90
7684;DHT22;3884;48.616;12.872;2023-05-16T05:57:23;11.00;99.90
7684;DHT22;3884;48.616;12.872;2023-05-16T05:59:50;11.00;99.90
7684;DHT22;3884;48.616;12.872;2023-05-16T06:02:17;11.10;99.90
7684;DHT22;3884;48.616;12.872;2023-05-16T06:04:45;11.20;99.90
7684;DHT22;3884;48.616;12.872;2023-05-16T06:07:12;11.20;99.90
7684;DHT22;3884;48.616;12.872;2023-05-16T06:09:40;11.20;99.90
7684;DHT22;3884;48.616;12.872;2023-05-16T06:12:08;11.20;99.90
7684;DHT22;3884;48.616;12.872;2023-05-16T06:14:36;11.20;99.90
7684;DHT22;3884;48.616;12.872;2023-05-16T06:17:03;11.20;99.90
7684;DHT22;3884;48.616;12.872;2023-05-16T06:19:30;11.00;99.90
7684;DHT22;3884;48.616;12.872;2023-05-16T06:21:57;11.10;99.90
7684;DHT22;3884;48.616;12.872;2023-05-16T06:24:25;11.20;99.90
7684;DHT22;3884;48.616;12.872;2023-05-16T06:26:54;11.30;99.90
7684;DHT22;3884;48.616;12.872;2023-05-16T06:29:21;11.30;99.90
7684;DHT22;3884;48.616;12.872;2023-05-16T06:31:50;11.20;99.90
7684;DHT22;3884;48.616;12.872;2023-05-16T06:34:17;11.10;99.90
7684;DHT22;3884;48.616;12.872;2023-05-16T06:36:45;11.30;99.90
7684;DHT22;3884;48.616;12.872;2023-05-16T06:39:12;11.40;99.90
7684;DHT22;3884;48.616;12.872;2023-05-16T06:41:39;11.50;99.90
7684;DHT22;3884;48.616;12.872;2023-05-16T06:44:06;11.40;99.90
7684;DHT22;3884;48.616;12.872;2023-05-16T06:46:34;11.50;99.90
7684;DHT22;3884;48.616;12.872;2023-05-16T06:49:03;11.70;99.90
7684;DHT22;3884;48.616;12.872;2023-05-16T06:51:31;11.70;99.90
7684;DHT22;3884;48.616;12.872;2023-05-16T06:54:00;11.80;99.90
7684;DHT22;3884;48.616;12.872;2023-05-16T06:56:28;11.90;99.90
7684;DHT22;3884;48.616;12.872;2023-05-16T06:58:56;12.00;99.90
7684;DHT22;3884;48.616;12.872;2023-05-16T07:01:22;11.80;99.90
7684;DHT22;3884;48.616;12.872;2023-05-16T07:03:50;11.80;99.90
7684;DHT22;3884;48.616;12.872;2023-05-16T07:06:18;11.90;99.90
7684;DHT22;3884;48.616;12.872;2023-05-16T07:08:45;12.00;99.90
7684;DHT22;3884;48.616;12.872;2023-05-16T07:11:12;12.10;99.90
7684;DHT22;3884;48.616;12.872;2023-05-16T07:13:39;12.10;99.90
7684;DHT22;3884;48.616;12.872;2023-05-16T07:16:06;12.10;99.90
7684;DHT22;3884;48.616;12.872;2023-05-16T07:18:33;12.20;99.90
7684;DHT22;3884;48.616;12.872;2023-05-16T07:21:00;12.10;99.90
7684;DHT22;3884;48.616;12.872;2023-05-16T07:23:28;12.20;99.90
7684;DHT22;3884;48.616;12.872;2023-05-16T07:25:55;12.20;99.90
7684;DHT22;3884;48.616;12.872;2023-05-16T07:28:22;12.30;99.90
7684;DHT22;3884;48.616;12.872;2023-05-16T07:30:49;12.40;99.90
7684;DHT22;3884;48.616;12.872;2023-05-16T07:33:16;12.30;99.90
7684;DHT22;3884;48.616;12.872;2023-05-16T07:35:43;12.30;99.90
7684;DHT22;3884;48.616;12.872;2023-05-16T07:38:10;12.40;99.90
7684;DHT22;3884;48.616;12.872;2023-05-16T07:40:39;12.50;99.90
7684;DHT22;3884;48.616;12.872;2023-05-16T07:43:05;12.70;99.90
7684;DHT22;3884;48.616;12.872;2023-05-16T07:45:32;12.50;99.90
7684;DHT22;3884;48.616;12.872;2023-05-16T07:47:59;12.50;99.90
7684;DHT22;3884;48.616;12.872;2023-05-16T07:50:26;12.50;99.90
7684;DHT22;3884;48.616;12.872;2023-05-16T07:52:55;12.60;99.90
7684;DHT22;3884;48.616;12.872;2023-05-16T07:55:23;12.60;99.90
7684;DHT22;3884;48.616;12.872;2023-05-16T07:57:51;12.70;99.90
7684;DHT22;3884;48.616;12.872;2023-05-16T08:00:19;12.90;99.90
7684;DHT22;3884;48.616;12.872;2023-05-16T08:02:52;13.00;99.90
7684;DHT22;3884;48.616;12.872;2023-05-16T08:05:22;13.20;99.90
7684;DHT22;3884;48.616;12.872;2023-05-16T08:07:51;13.30;57.40
7684;DHT22;3884;48.616;12.872;2023-05-16T08:10:18;13.20;89.70
7684;DHT22;3884;48.616;12.872;2023-05-16T08:12:45;13.10;99.90
7684;DHT22;3884;48.616;12.872;2023-05-16T08:15:14;13.10;99.90
7684;DHT22;3884;48.616;12.872;2023-05-16T08:17:41;13.10;94.70
7684;DHT22;3884;48.616;12.872;2023-05-16T08:20:08;13.00;99.90
7684;DHT22;3884;48.616;12.872;2023-05-16T08:22:36;13.10;99.30
7684;DHT22;3884;48.616;12.872;2023-05-16T08:25:04;13.10;99.90
7684;DHT22;3884;48.616;12.872;2023-05-16T08:27:31;13.10;87.70
7684;DHT22;3884;48.616;12.872;2023-05-16T08:29:58;13.10;32.80
7684;DHT22;3884;48.616;12.872;2023-05-16T08:32:26;13.20;16.40
7684;DHT22;3884;48.616;12.872;2023-05-16T08:34:55;13.20;1.00
7684;DHT22;3884;48.616;12.872;2023-05-16T08:37:24;13.30;1.00
7684;DHT22;3884;48.616;12.872;2023-05-16T08:39:51;13.50;1.00
7684;DHT22;3884;48.616;12.872;2023-05-16T08:42:18;13.60;1.00
7684;DHT22;3884;48.616;12.872;2023-05-16T08:44:46;13.80;1.00
7684;DHT22;3884;48.616;12.872;2023-05-16T08:47:18;13.70;1.00
7684;DHT22;3884;48.616;12.872;2023-05-16T08:49:50;13.90;1.00
7684;DHT22;3884;48.616;12.872;2023-05-16T08:52:19;14.10;1.00
7684;DHT22;3884;48.616;12.872;2023-05-16T08:54:49;14.20;1.00
7684;DHT22;3884;48.616;12.872;2023-05-16T08:57:18;14.40;1.00
7684;DHT22;3884;48.616;12.872;2023-05-16T08:59:47;14.60;99.90
7684;DHT22;3884;48.616;12.872;2023-05-16T09:02:14;14.90;99.90
7684;DHT22;3884;48.616;12.872;2023-05-16T09:04:42;15.20;1.00
7684;DHT22;3884;48.616;12.872;2023-05-16T09:07:11;15.30;1.00
7684;DHT22;3884;48.616;12.872;2023-05-16T09:09:38;15.20;1.00
7684;DHT22;3884;48.616;12.872;2023-05-16T09:12:07;15.10;1.00
7684;DHT22;3884;48.616;12.872;2023-05-16T09:14:35;15.30;1.00
7684;DHT22;3884;48.616;12.872;2023-05-16T09:17:06;15.30;1.00
7684;DHT22;3884;48.616;12.872;2023-05-16T09:19:37;15.30;1.00
7684;DHT22;3884;48.616;12.872;2023-05-16T09:22:15;15.40;1.00
7684;DHT22;3884;48.616;12.872;2023-05-16T09:24:43;15.50;99.90
7684;DHT22;3884;48.616;12.872;2023-05-16T09:27:18;15.30;1.00
7684;DHT22;3884;48.616;12.872;2023-05-16T09:29:49;15.40;99.90
7684;DHT22;3884;48.616;12.872;2023-05-16T09:32:25;15.40;1.00
7684;DHT22;3884;48.616;12.872;2023-05-16T09:34:52;15.40;1.00
7684;DHT22;3884;48.616;12.872;2023-05-16T09:37:23;15.30;99.90
7684;DHT22;3884;48.616;12.872;2023-05-16T09:39:52;15.30;1.00
7684;DHT22;3884;48.616;12.872;2023-05-16T09:42:20;15.40;99.90
7684;DHT22;3884;48.616;12.872;2023-05-16T09:44:48;15.30;40.70
7684;DHT22;3884;48.616;12.872;2023-05-16T09:47:16;15.70;99.90
7684;DHT22;3884;48.616;12.872;2023-05-16T09:49:50;15.90;1.00
7684;DHT22;3884;48.616;12.872;2023-05-16T09:52:18;16.10;1.00
7684;DHT22;3884;48.616;12.872;2023-05-16T09:54:48;16.10;1.00
7684;DHT22;3884;48.616;12.872;2023-05-16T09:57:17;16.30;99.90
7684;DHT22;3884;48.616;12.872;2023-05-16T09:59:49;16.30;99.90
7684;DHT22;3884;48.616;12.872;2023-05-16T10:02:17;16.50;15.30
7684;DHT22;3884;48.616;12.872;2023-05-16T10:04:45;16.60;1.00
7684;DHT22;3884;48.616;12.872;2023-05-16T10:07:13;16.30;99.90
7684;DHT22;3884;48.616;12.872;2023-05-16T10:09:47;16.30;99.90
7684;DHT22;3884;48.616;12.872;2023-05-16T10:12:28;16.50;99.90
7684;DHT22;3884;48.616;12.872;2023-05-16T10:15:03;16.60;1.00
7684;DHT22;3884;48.616;12.872;2023-05-16T10:17:38;16.50;66.40
7684;DHT22;3884;48.616;12.872;2023-05-16T10:20:10;16.60;99.90
7684;DHT22;3884;48.616;12.872;2023-05-16T10:22:42;16.70;29.10
7684;DHT22;3884;48.616;12.872;2023-05-16T10:25:22;16.90;1.00
7684;DHT22;3884;48.616;12.872;2023-05-16T10:27:59;17.10;1.00
7684;DHT22;3884;48.616;12.872;2023-05-16T10:30:33;17.20;1.00
7684;DHT22;3884;48.616;12.872;2023-05-16T10:33:17;17.20;1.00
7684;DHT22;3884;48.616;12.872;2023-05-16T10:35:47;17.20;99.90
7684;DHT22;3884;48.616;12.872;2023-05-16T10:38:17;17.40;99.90
7684;DHT22;3884;48.616;12.872;2023-05-16T10:40:47;17.50;99.90
7684;DHT22;3884;48.616;12.872;2023-05-16T10:43:25;17.20;99.90
7684;DHT22;3884;48.616;12.872;2023-05-16T10:46:13;17.40;99.90
7684;DHT22;3884;48.616;12.872;2023-05-16T10:48:43;17.20;99.90
7684;DHT22;3884;48.616;12.872;2023-05-16T10:51:34;17.20;99.90
7684;DHT22;3884;48.616;12.872;2023-05-16T10:54:07;17.40;99.90
7684;DHT22;3884;48.616;12.872;2023-05-16T10:56:36;17.40;99.90
7684;DHT22;3884;48.616;12.872;2023-05-16T10:59:03;17.50;99.90
7684;DHT22;3884;48.616;12.872;2023-05-16T11:01:32;17.50;99.90
7684;DHT22;3884;48.616;12.872;2023-05-16T11:04:08;17.60;99.90
7684;DHT22;3884;48.616;12.872;2023-05-16T11:06:48;17.30;99.90
7684;DHT22;3884;48.616;12.872;2023-05-16T11:09:23;17.20;99.90
7684;DHT22;3884;48.616;12.872;2023-05-16T11:12:11;17.20;99.90
7684;DHT22;3884;48.616;12.872;2023-05-16T11:14:39;17.10;99.90
7684;DHT22;3884;48.616;12.872;2023-05-16T11:17:09;17.10;99.90
7684;DHT22;3884;48.616;12.872;2023-05-16T11:19:42;17.00;99.90
7684;DHT22;3884;48.616;12.872;2023-05-16T11:22:23;17.20;99.90
7684;DHT22;3884;48.616;12.872;2023-05-16T11:24:56;17.10;99.90
7684;DHT22;3884;48.616;12.872;2023-05-16T11:27:27;17.00;99.90
7684;DHT22;3884;48.616;12.872;2023-05-16T11:29:58;17.10;99.90
7684;DHT22;3884;48.616;12.872;2023-05-16T11:32:25;17.20;99.90
7684;DHT22;3884;48.616;12.872;2023-05-16T11:34:52;17.20;99.90
7684;DHT22;3884;48.616;12.872;2023-05-16T11:37:19;17.20;99.90
7684;DHT22;3884;48.616;12.872;2023-05-16T11:39:48;17.10;99.90
7684;DHT22;3884;48.616;12.872;2023-05-16T11:42:16;17.00;99.90
7684;DHT22;3884;48.616;12.872;2023-05-16T11:44:45;16.90;99.90
7684;DHT22;3884;48.616;12.872;2023-05-16T11:47:12;16.80;99.90
7684;DHT22;3884;48.616;12.872;2023-05-16T11:49:39;16.80;1.00
7684;DHT22;3884;48.616;12.872;2023-05-16T11:52:07;16.70;1.00
7684;DHT22;3884;48.616;12.872;2023-05-16T11:54:35;16.80;1.00
7684;DHT22;3884;48.616;12.872;2023-05-16T11:57:02;16.90;1.00
7684;DHT22;3884;48.616;12.872;2023-05-16T11:59:29;16.90;1.00
7684;DHT22;3884;48.616;12.872;2023-05-16T12:02:02;16.60;1.00
7684;DHT22;3884;48.616;12.872;2023-05-16T12:04:29;16.60;1.00
7684;DHT22;3884;48.616;12.872;2023-05-16T12:07:00;16.40;1.00
7684;DHT22;3884;48.616;12.872;2023-05-16T12:09:27;16.30;1.00
7684;DHT22;3884;48.616;12.872;2023-05-16T12:11:54;16.30;1.00
7684;DHT22;3884;48.616;12.872;2023-05-16T13:39:24;13.50;1.00
7684;DHT22;3884;48.616;12.872;2023-05-16T13:41:51;14.10;99.90
7684;DHT22;3884;48.616;12.872;2023-05-16T13:44:18;14.10;1.00
7684;DHT22;3884;48.616;12.872;2023-05-16T13:46:46;14.20;1.00
7684;DHT22;3884;48.616;12.872;2023-05-16T13:49:13;14.30;99.90
7684;DHT22;3884;48.616;12.872;2023-05-16T13:51:40;14.20;99.90
7684;DHT22;3884;48.616;12.872;2023-05-16T13:54:07;14.00;99.90
7684;DHT22;3884;48.616;12.872;2023-05-16T13:56:35;13.80;1.00
7684;DHT22;3884;48.616;12.872;2023-05-16T13:59:02;13.50;1.00
7684;DHT22;3884;48.616;12.872;2023-05-16T14:01:29;13.20;99.90
7684;DHT22;3884;48.616;12.872;2023-05-16T14:03:56;13.20;99.90
7684;DHT22;3884;48.616;12.872;2023-05-16T14:06:22;13.10;1.00
7684;DHT22;3884;48.616;12.872;2023-05-16T14:08:49;12.90;1.00
7684;DHT22;3884;48.616;12.872;2023-05-16T14:11:16;12.90;99.90
7684;DHT22;3884;48.616;12.872;2023-05-16T14:13:52;12.70;1.00
7684;DHT22;3884;48.616;12.872;2023-05-16T14:16:19;12.60;99.90
7684;DHT22;3884;48.616;12.872;2023-05-16T14:18:46;12.50;1.00
7684;DHT22;3884;48.616;12.872;2023-05-16T14:21:13;12.50;1.00
7684;DHT22;3884;48.616;12.872;2023-05-16T14:23:40;12.40;99.90
7684;DHT22;3884;48.616;12.872;2023-05-16T14:26:07;12.30;99.90
7684;DHT22;3884;48.616;12.872;2023-05-16T14:28:34;12.20;99.90
7684;DHT22;3884;48.616;12.872;2023-05-16T14:31:02;12.10;1.00
7684;DHT22;3884;48.616;12.872;2023-05-16T14:33:29;12.20;99.90
7684;DHT22;3884;48.616;12.872;2023-05-16T14:35:57;12.30;1.00
7684;DHT22;3884;48.616;12.872;2023-05-16T14:38:24;12.30;1.00
7684;DHT22;3884;48.616;12.872;2023-05-16T14:40:51;12.40;1.00
7684;DHT22;3884;48.616;12.872;2023-05-16T14:43:18;12.40;1.00
7684;DHT22;3884;48.616;12.872;2023-05-16T14:45:44;12.40;1.00
7684;DHT22;3884;48.616;12.872;2023-05-16T14:48:13;12.40;59.30
7684;DHT22;3884;48.616;12.872;2023-05-16T14:50:41;12.30;1.00
7684;DHT22;3884;48.616;12.872;2023-05-16T14:53:08;12.20;99.90
7684;DHT22;3884;48.616;12.872;2023-05-16T14:55:35;12.20;1.00
7684;DHT22;3884;48.616;12.872;2023-05-16T14:58:04;12.20;1.00
7684;DHT22;3884;48.616;12.872;2023-05-16T15:00:31;12.20;98.60
7684;DHT22;3884;48.616;12.872;2023-05-16T15:02:57;12.20;1.00
7684;DHT22;3884;48.616;12.872;2023-05-16T15:05:26;12.10;99.90
7684;DHT22;3884;48.616;12.872;2023-05-16T15:07:53;12.00;99.90
7684;DHT22;3884;48.616;12.872;2023-05-16T15:10:20;12.00;1.00
7684;DHT22;3884;48.616;12.872;2023-05-16T15:12:47;12.00;99.90
7684;DHT22;3884;48.616;12.872;2023-05-16T15:15:14;12.10;99.90
7684;DHT22;3884;48.616;12.872;2023-05-16T15:17:41;12.10;99.90
7684;DHT22;3884;48.616;12.872;2023-05-16T15:20:10;12.10;1.00
7684;DHT22;3884;48.616;12.872;2023-05-16T15:22:39;12.20;1.00
7684;DHT22;3884;48.616;12.872;2023-05-16T15:25:08;12.20;1.00
7684;DHT22;3884;48.616;12.872;2023-05-16T15:27:42;12.20;1.00
7684;DHT22;3884;48.616;12.872;2023-05-16T15:30:10;12.30;1.00
7684;DHT22;3884;48.616;12.872;2023-05-16T15:32:37;12.30;1.00
7684;DHT22;3884;48.616;12.872;2023-05-16T15:35:04;12.20;28.10
7684;DHT22;3884;48.616;12.872;2023-05-16T15:37:31;12.30;99.90
7684;DHT22;3884;48.616;12.872;2023-05-16T15:40:00;12.30;99.90
7684;DHT22;3884;48.616;12.872;2023-05-16T15:42:28;12.40;99.90
7684;DHT22;3884;48.616;12.872;2023-05-16T15:44:55;12.30;99.90
7684;DHT22;3884;48.616;12.872;2023-05-16T15:47:22;12.30;99.90
7684;DHT22;3884;48.616;12.872;2023-05-16T15:49:49;12.30;99.90
7684;DHT22;3884;48.616;12.872;2023-05-16T15:52:16;12.30;99.90
7684;DHT22;3884;48.616;12.872;2023-05-16T15:54:43;12.40;99.90
7684;DHT22;3884;48.616;12.872;2023-05-16T15:57:11;12.40;99.90
7684;DHT22;3884;48.616;12.872;2023-05-16T15:59:38;12.40;99.90
7684;DHT22;3884;48.616;12.872;2023-05-16T16:02:05;12.50;99.90
7684;DHT22;3884;48.616;12.872;2023-05-16T16:04:33;12.50;99.90
7684;DHT22;3884;48.616;12.872;2023-05-16T16:07:00;12.60;99.90
7684;DHT22;3884;48.616;12.872;2023-05-16T16:09:26;12.60;99.90
7684;DHT22;3884;48.616;12.872;2023-05-16T16:11:53;12.60;99.90
7684;DHT22;3884;48.616;12.872;2023-05-16T16:14:23;12.70;99.90
7684;DHT22;3884;48.616;12.872;2023-05-16T16:16:50;12.70;99.90
7684;DHT22;3884;48.616;12.872;2023-05-16T16:19:17;12.70;99.90
7684;DHT22;3884;48.616;12.872;2023-05-16T16:21:44;12.70;99.90
7684;DHT22;3884;48.616;12.872;2023-05-16T16:24:10;12.70;99.90
7684;DHT22;3884;48.616;12.872;2023-05-16T16:26:38;12.50;99.90
7684;DHT22;3884;48.616;12.872;2023-05-16T16:29:05;12.50;99.90
7684;DHT22;3884;48.616;12.872;2023-05-16T16:31:33;12.50;99.90
7684;DHT22;3884;48.616;12.872;2023-05-16T16:34:00;12.50;99.90
7684;DHT22;3884;48.616;12.872;2023-05-16T16:36:27;12.50;99.90
7684;DHT22;3884;48.616;12.872;2023-05-16T16:38:54;12.40;99.90
7684;DHT22;3884;48.616;12.872;2023-05-16T16:41:21;12.50;99.90
7684;DHT22;3884;48.616;12.872;2023-05-16T16:43:47;12.30;99.90
7684;DHT22;3884;48.616;12.872;2023-05-16T16:46:14;12.30;99.90
7684;DHT22;3884;48.616;12.872;2023-05-16T16:48:43;12.30;99.90
7684;DHT22;3884;48.616;12.872;2023-05-16T16:51:09;12.30;99.90
7684;DHT22;3884;48.616;12.872;2023-05-16T16:53:36;12.20;99.90
7684;DHT22;3884;48.616;12.872;2023-05-16T16:56:03;12.20;99.90
7684;DHT22;3884;48.616;12.872;2023-05-16T16:58:30;12.30;99.90
7684;DHT22;3884;48.616;12.872;2023-05-16T17:00:58;12.20;99.90
7684;DHT22;3884;48.616;12.872;2023-05-16T17:03:25;12.20;99.90
7684;DHT22;3884;48.616;12.872;2023-05-16T17:05:53;12.20;99.90
7684;DHT22;3884;48.616;12.872;2023-05-16T17:08:20;12.20;99.90
7684;DHT22;3884;48.616;12.872;2023-05-16T17:10:47;12.20;99.90
7684;DHT22;3884;48.616;12.872;2023-05-16T17:13:15;12.20;99.90
7684;DHT22;3884;48.616;12.872;2023-05-16T17:15:42;12.10;99.90
7684;DHT22;3884;48.616;12.872;2023-05-16T17:18:09;12.20;99.90
7684;DHT22;3884;48.616;12.872;2023-05-16T17:20:36;12.20;99.90
7684;DHT22;3884;48.616;12.872;2023-05-16T17:23:04;12.20;99.90